Time;durP1;ratioP1;P1;durP2;ratioP2;P2;SDS_P1;SDS_P2;PMS_P1;PMS_P2;Temp;Humidity;BMP_temperature;BMP_pressure;BME280_temperature;BME280_humidity;BME280_pressure;Samples;Min_cycle;Max_cycle;Signal;HPM_P1;HPM_P2
2024/02/14 00:00:02;;;;;;;0.80;0.40;;;20.60;40.50;;;;;;5043482;28;20036;-63
2024/02/14 00:02:30;;;;;;;0.90;0.50;;;20.60;40.50;;;;;;5039515;28;20449;-64
2024/02/14 00:04:56;;;;;;;1.00;0.32;;;20.60;40.50;;;;;;5045086;28;20035;-64
2024/02/14 00:07:22;;;;;;;0.70;0.50;;;20.60;40.60;;;;;;5041852;28;20112;-64
2024/02/14 00:09:48;;;;;;;0.85;0.40;;;20.60;40.60;;;;;;5044372;28;20091;-63
2024/02/14 00:12:14;;;;;;;0.93;0.40;;;20.60;40.60;;;;;;5038780;28;20022;-63
2024/02/14 00:14:40;;;;;;;1.10;0.50;;;20.60;40.70;;;;;;5042913;28;20417;-63
2024/02/14 00:17:07;;;;;;;0.60;0.40;;;20.60;40.70;;;;;;5041155;28;20095;-63
2024/02/14 00:19:32;;;;;;;0.95;0.52;;;20.60;40.80;;;;;;5045710;28;20025;-63
2024/02/14 00:21:58;;;;;;;1.02;0.50;;;20.60;40.80;;;;;;5045572;28;20126;-65
2024/02/14 00:24:26;;;;;;;0.80;0.40;;;20.60;40.80;;;;;;5022725;28;20043;-65
2024/02/14 00:26:52;;;;;;;1.30;0.50;;;20.60;40.90;;;;;;5042718;28;20030;-65
2024/02/14 00:29:18;;;;;;;1.33;0.60;;;20.60;40.90;;;;;;5043262;28;20448;-64
2024/02/14 00:31:44;;;;;;;0.75;0.40;;;20.60;40.90;;;;;;5046775;28;20028;-64
2024/02/14 00:34:10;;;;;;;0.20;0.20;;;20.50;40.90;;;;;;5043103;28;20034;-65
2024/02/14 00:36:36;;;;;;;0.30;0.20;;;20.60;41.10;;;;;;5045809;28;20033;-64
2024/02/14 00:39:02;;;;;;;1.13;0.45;;;20.60;41.10;;;;;;5046770;28;20466;-64
2024/02/14 00:41:29;;;;;;;0.85;0.60;;;20.50;41.00;;;;;;5046748;28;20375;-65
2024/02/14 00:43:58;;;;;;;0.63;0.40;;;20.60;41.10;;;;;;5046557;28;20087;-64
2024/02/14 00:46:23;;;;;;;0.88;0.40;;;20.60;41.80;;;;;;5044183;28;20034;-64
2024/02/14 00:48:50;;;;;;;0.40;0.40;;;20.50;41.20;;;;;;5047285;28;20328;-64
2024/02/14 00:51:15;;;;;;;0.60;0.30;;;20.50;41.20;;;;;;5046963;28;20346;-64
2024/02/14 00:53:41;;;;;;;0.32;0.30;;;20.50;41.30;;;;;;5044682;28;20049;-64
2024/02/14 00:56:07;;;;;;;1.33;0.50;;;20.60;41.30;;;;;;5047237;28;20112;-63
2024/02/14 00:58:33;;;;;;;0.60;0.40;;;20.50;41.40;;;;;;5045568;28;20090;-65
2024/02/14 01:00:59;;;;;;;0.40;0.32;;;20.50;41.40;;;;;;5049639;28;20419;-66
2024/02/14 01:03:25;;;;;;;0.70;0.40;;;20.50;41.40;;;;;;5044302;28;20028;-65
2024/02/14 01:05:50;;;;;;;0.60;0.35;;;20.50;41.50;;;;;;5044298;28;20025;-65
2024/02/14 01:08:17;;;;;;;2.35;0.40;;;20.50;41.50;;;;;;5046754;28;20111;-65
2024/02/14 01:10:43;;;;;;;0.20;0.20;;;20.50;41.60;;;;;;5045346;28;20109;-65
2024/02/14 01:13:08;;;;;;;0.60;0.40;;;20.50;41.60;;;;;;5043985;28;20117;-64
2024/02/14 01:15:34;;;;;;;0.90;0.60;;;20.50;41.60;;;;;;5027248;28;20055;-65
2024/02/14 01:18:00;;;;;;;0.75;0.40;;;20.50;41.60;;;;;;5047349;28;20029;-65
2024/02/14 01:20:26;;;;;;;0.98;0.60;;;20.50;41.70;;;;;;5046635;28;20108;-65
2024/02/14 01:22:52;;;;;;;1.02;0.50;;;20.50;41.80;;;;;;5043263;28;20037;-66
2024/02/14 01:25:18;;;;;;;0.55;0.32;;;20.50;41.80;;;;;;5045345;28;20499;-65
2024/02/14 01:27:44;;;;;;;0.63;0.40;;;20.50;41.90;;;;;;5044558;28;20037;-65
2024/02/14 01:30:10;;;;;;;0.40;0.40;;;20.50;41.90;;;;;;5046479;28;20025;-65
2024/02/14 01:32:37;;;;;;;0.85;0.50;;;20.50;41.90;;;;;;5042815;28;20025;-64
2024/02/14 01:35:03;;;;;;;0.60;0.40;;;20.40;41.90;;;;;;5042559;28;20090;-65
2024/02/14 01:37:30;;;;;;;0.80;0.50;;;20.40;41.90;;;;;;5045168;28;20026;-65
2024/02/14 01:39:56;;;;;;;0.65;0.45;;;20.40;42.00;;;;;;5043995;28;20041;-63
2024/02/14 01:42:21;;;;;;;0.35;0.30;;;20.40;42.00;;;;;;5044173;28;20041;-64
2024/02/14 01:44:48;;;;;;;1.20;0.50;;;20.40;42.10;;;;;;5044575;28;20036;-64
2024/02/14 01:47:13;;;;;;;0.50;0.40;;;20.40;42.10;;;;;;5044705;28;20171;-65
2024/02/14 01:49:44;;;;;;;0.85;0.30;;;20.40;42.10;;;;;;5046502;28;20499;-64
2024/02/14 01:52:10;;;;;;;0.85;0.50;;;20.40;42.20;;;;;;5042215;28;20036;-64
2024/02/14 01:54:36;;;;;;;0.70;0.50;;;20.40;42.20;;;;;;5046556;28;20025;-65
2024/02/14 01:57:03;;;;;;;1.27;0.50;;;20.40;42.20;;;;;;5043995;28;20432;-65
2024/02/14 01:59:29;;;;;;;0.60;0.40;;;20.40;42.30;;;;;;5043022;28;20044;-65
2024/02/14 02:01:55;;;;;;;0.60;0.47;;;20.40;42.30;;;;;;5045770;28;20091;-65
2024/02/14 02:04:21;;;;;;;0.57;0.30;;;20.40;42.30;;;;;;5046117;28;20030;-64
2024/02/14 02:06:47;;;;;;;0.70;0.50;;;20.40;42.30;;;;;;5044752;28;20048;-64
2024/02/14 02:09:14;;;;;;;1.73;0.40;;;20.40;42.30;;;;;;5047284;28;20039;-64
2024/02/14 02:11:55;;;;;;;0.73;0.40;;;20.40;42.40;;;;;;5023141;28;20033;-64
2024/02/14 02:14:22;;;;;;;0.55;0.40;;;20.40;42.40;;;;;;5045612;28;20112;-65
2024/02/14 02:16:49;;;;;;;0.77;0.40;;;20.40;42.50;;;;;;5043576;28;20021;-65
2024/02/14 02:19:16;;;;;;;0.40;0.30;;;20.30;42.40;;;;;;5039062;28;20437;-63
2024/02/14 02:21:46;;;;;;;0.43;0.40;;;20.30;42.50;;;;;;5041858;28;20044;-63
2024/02/14 02:24:12;;;;;;;0.88;0.52;;;20.30;42.60;;;;;;5043403;28;20117;-63
2024/02/14 02:26:38;;;;;;;1.05;0.55;;;20.30;42.60;;;;;;5045217;28;20033;-63
2024/02/14 02:29:05;;;;;;;0.93;0.50;;;20.30;42.70;;;;;;5041296;28;20030;-64
2024/02/14 02:31:31;;;;;;;1.15;0.50;;;20.30;42.70;;;;;;5045333;28;20033;-64
2024/02/14 02:33:57;;;;;;;1.25;0.50;;;20.30;42.80;;;;;;5043081;28;20036;-63
2024/02/14 02:36:24;;;;;;;1.20;0.50;;;20.30;42.90;;;;;;5044320;28;20033;-65
2024/02/14 02:38:50;;;;;;;0.50;0.32;;;20.30;42.90;;;;;;5046124;28;20063;-64
2024/02/14 02:41:16;;;;;;;0.50;0.30;;;20.20;42.90;;;;;;5045408;28;20045;-63
2024/02/14 02:43:42;;;;;;;0.50;0.43;;;20.20;43.00;;;;;;5044157;28;20037;-64
2024/02/14 02:46:11;;;;;;;1.08;0.60;;;20.20;43.00;;;;;;5043630;28;20037;-64
2024/02/14 02:48:37;;;;;;;0.60;0.40;;;20.20;43.10;;;;;;5040503;28;20445;-64
2024/02/14 02:51:03;;;;;;;1.02;0.60;;;20.20;43.10;;;;;;5026232;28;20036;-64
2024/02/14 02:53:29;;;;;;;1.08;0.50;;;20.20;43.20;;;;;;5046180;28;20448;-64
2024/02/14 02:55:57;;;;;;;0.73;0.40;;;20.20;43.20;;;;;;5047255;28;20029;-65
2024/02/14 02:58:23;;;;;;;0.70;0.40;;;20.10;43.20;;;;;;5041938;28;20452;-65
2024/02/14 03:00:49;;;;;;;0.70;0.50;;;20.10;43.90;;;;;;5041608;28;20074;-65
2024/02/14 03:03:16;;;;;;;0.68;0.57;;;20.10;43.30;;;;;;5026443;28;20029;-64
2024/02/14 03:05:44;;;;;;;0.93;0.40;;;20.10;43.40;;;;;;5043115;28;20444;-65
2024/02/14 03:08:14;;;;;;;1.40;0.60;;;20.10;43.40;;;;;;5045740;28;20029;-64
2024/02/14 03:10:40;;;;;;;1.33;0.50;;;20.10;43.50;;;;;;5041946;28;20034;-65
2024/02/14 03:13:11;;;;;;;0.93;0.50;;;20.10;43.50;;;;;;5043197;28;20029;-65
2024/02/14 03:15:37;;;;;;;0.47;0.47;;;20.10;43.60;;;;;;5047647;28;20040;-66
2024/02/14 03:18:07;;;;;;;1.00;0.50;;;20.10;43.70;;;;;;5041484;28;20040;-65
2024/02/14 03:20:33;;;;;;;0.95;0.40;;;20.10;43.70;;;;;;5022361;28;20548;-65
2024/02/14 03:22:59;;;;;;;0.65;0.40;;;20.10;43.80;;;;;;5025749;28;20491;-64
2024/02/14 03:25:26;;;;;;;0.57;0.50;;;20.10;43.80;;;;;;5042620;28;20033;-64
2024/02/14 03:27:53;;;;;;;0.77;0.55;;;20.00;43.80;;;;;;5042801;28;20509;-64
2024/02/14 03:30:20;;;;;;;0.55;0.40;;;20.00;43.90;;;;;;5044769;28;20429;-64
2024/02/14 03:32:49;;;;;;;0.30;0.30;;;20.00;43.90;;;;;;5041493;28;20021;-64
2024/02/14 03:35:16;;;;;;;0.50;0.40;;;20.00;44.00;;;;;;5045136;28;20482;-64
2024/02/14 03:37:43;;;;;;;0.65;0.40;;;20.00;44.00;;;;;;5044494;28;20045;-64
2024/02/14 03:40:10;;;;;;;0.20;0.20;;;20.00;44.10;;;;;;5043902;28;20050;-63
2024/02/14 03:42:35;;;;;;;0.43;0.40;;;20.00;44.10;;;;;;5047492;28;20437;-63
2024/02/14 03:45:05;;;;;;;0.73;0.50;;;20.00;44.10;;;;;;5041283;28;20032;-64
2024/02/14 03:47:35;;;;;;;0.90;0.55;;;20.00;44.20;;;;;;5024607;28;20364;-64
2024/02/14 03:50:04;;;;;;;0.80;0.38;;;20.00;44.30;;;;;;5046037;28;20048;-65
2024/02/14 03:52:33;;;;;;;1.67;0.65;;;20.00;44.30;;;;;;5044846;28;20034;-64
2024/02/14 03:55:00;;;;;;;0.50;0.40;;;20.00;44.30;;;;;;5028088;28;20075;-65
2024/02/14 03:57:29;;;;;;;0.70;0.43;;;20.00;44.40;;;;;;5043145;28;20033;-65
2024/02/14 03:59:56;;;;;;;0.50;0.50;;;20.00;44.40;;;;;;5043027;28;20061;-65
2024/02/14 04:02:23;;;;;;;0.73;0.43;;;20.00;44.50;;;;;;5039389;28;20069;-64
2024/02/14 04:04:49;;;;;;;1.00;0.50;;;19.90;44.50;;;;;;5039197;28;20103;-65
2024/02/14 04:07:15;;;;;;;1.17;0.40;;;19.90;44.50;;;;;;5041183;28;20025;-64
2024/02/14 04:09:41;;;;;;;0.95;0.50;;;19.90;44.60;;;;;;5040953;28;20094;-64
2024/02/14 04:12:08;;;;;;;1.17;0.50;;;19.90;44.60;;;;;;5042968;28;20026;-64
2024/02/14 04:14:34;;;;;;;0.75;0.40;;;19.90;44.70;;;;;;5041216;28;20040;-63
2024/02/14 04:17:00;;;;;;;0.88;0.60;;;19.90;44.70;;;;;;5042833;28;20360;-64
2024/02/14 04:19:26;;;;;;;0.60;0.50;;;19.90;44.70;;;;;;5043272;28;20067;-66
2024/02/14 04:21:52;;;;;;;0.60;0.50;;;19.90;44.80;;;;;;5021154;28;20033;-65
2024/02/14 04:24:17;;;;;;;1.05;0.70;;;19.90;44.90;;;;;;5040557;28;20037;-65
2024/02/14 04:26:43;;;;;;;1.05;0.80;;;19.90;44.90;;;;;;5046195;28;20348;-65
2024/02/14 04:29:09;;;;;;;0.65;0.40;;;19.90;44.90;;;;;;5042184;28;20030;-64
2024/02/14 04:31:35;;;;;;;0.90;0.40;;;19.90;45.00;;;;;;5041887;28;20099;-65
2024/02/14 04:34:01;;;;;;;1.13;0.50;;;19.90;45.00;;;;;;5043672;28;20366;-64
2024/02/14 04:36:26;;;;;;;0.70;0.60;;;19.80;45.00;;;;;;5040691;28;20118;-65
2024/02/14 04:38:53;;;;;;;0.60;0.50;;;19.90;45.10;;;;;;5042333;28;20037;-64
2024/02/14 04:41:19;;;;;;;1.08;0.70;;;19.80;45.10;;;;;;5043368;28;20045;-64
2024/02/14 04:43:45;;;;;;;1.20;0.55;;;19.90;45.10;;;;;;5039608;28;20025;-63
2024/02/14 04:46:11;;;;;;;0.77;0.50;;;19.80;45.80;;;;;;5045418;28;20108;-64
2024/02/14 04:48:37;;;;;;;0.98;0.68;;;19.80;45.20;;;;;;5042643;28;20087;-63
2024/02/14 04:51:06;;;;;;;1.20;0.60;;;19.80;45.20;;;;;;5040711;28;20087;-63
2024/02/14 04:53:32;;;;;;;1.48;0.70;;;19.80;45.20;;;;;;5023097;28;20033;-64
2024/02/14 04:55:58;;;;;;;1.13;0.60;;;19.80;45.30;;;;;;5038282;28;20464;-65
2024/02/14 04:58:24;;;;;;;1.20;0.60;;;19.80;45.30;;;;;;5041311;28;20075;-62
2024/02/14 05:00:50;;;;;;;1.40;0.70;;;19.80;45.40;;;;;;5040370;28;20364;-64
2024/02/14 05:03:17;;;;;;;0.63;0.55;;;19.80;45.40;;;;;;5042989;28;20021;-64
2024/02/14 05:05:43;;;;;;;1.00;0.73;;;19.80;45.40;;;;;;5042710;28;20029;-64
2024/02/14 05:08:08;;;;;;;2.17;0.75;;;19.80;45.50;;;;;;5042788;28;20021;-63
2024/02/14 05:10:35;;;;;;;1.50;0.70;;;19.80;45.50;;;;;;5041100;28;20424;-64
2024/02/14 05:13:01;;;;;;;2.05;0.82;;;19.80;45.60;;;;;;5041231;28;20389;-63
2024/02/14 05:15:27;;;;;;;0.82;0.60;;;19.80;45.60;;;;;;5041055;28;20400;-64
2024/02/14 05:17:52;;;;;;;0.98;0.40;;;19.80;45.60;;;;;;5045116;28;20081;-64
2024/02/14 05:20:18;;;;;;;1.35;0.88;;;19.80;45.60;;;;;;5045744;28;20037;-63
2024/02/14 05:22:44;;;;;;;0.98;0.63;;;19.80;45.60;;;;;;5049091;28;20061;-64
2024/02/14 05:25:10;;;;;;;1.10;0.60;;;19.80;45.60;;;;;;5045957;28;20021;-64
2024/02/14 05:27:36;;;;;;;2.13;0.88;;;19.80;45.60;;;;;;5045443;28;20026;-63
2024/02/14 05:30:05;;;;;;;1.00;0.65;;;19.70;45.60;;;;;;5043415;28;20076;-65
2024/02/14 05:32:31;;;;;;;1.35;0.70;;;19.80;45.80;;;;;;5045132;28;20032;-64
2024/02/14 05:34:57;;;;;;;0.93;0.55;;;19.80;45.80;;;;;;5045620;28;20033;-64
2024/02/14 05:37:23;;;;;;;0.73;0.50;;;19.80;45.90;;;;;;5050472;28;20491;-65
2024/02/14 05:39:50;;;;;;;1.83;0.82;;;19.70;45.90;;;;;;5043655;28;20053;-66
2024/02/14 05:42:18;;;;;;;1.17;0.60;;;19.70;45.90;;;;;;5046813;28;20036;-64
2024/02/14 05:44:44;;;;;;;3.67;0.70;;;19.70;46.00;;;;;;5046863;28;20025;-64
2024/02/14 05:47:11;;;;;;;1.70;0.75;;;19.70;46.00;;;;;;5043925;28;20045;-64
2024/02/14 05:49:41;;;;;;;0.88;0.50;;;19.70;46.10;;;;;;5043933;28;20036;-64
2024/02/14 05:52:08;;;;;;;0.70;0.40;;;19.70;46.10;;;;;;5047701;28;20037;-64
2024/02/14 05:54:34;;;;;;;1.00;0.70;;;19.70;46.10;;;;;;5044708;28;20051;-65
2024/02/14 05:57:01;;;;;;;0.98;0.60;;;19.70;46.10;;;;;;5046670;28;20033;-64
2024/02/14 05:59:28;;;;;;;1.45;0.70;;;19.70;46.20;;;;;;5042477;28;20053;-65
2024/02/14 06:01:53;;;;;;;0.77;0.60;;;19.70;46.20;;;;;;5043029;28;20037;-64
2024/02/14 06:04:19;;;;;;;1.13;0.60;;;19.70;46.20;;;;;;5043170;28;20697;-64
2024/02/14 06:06:45;;;;;;;0.85;0.50;;;19.70;46.30;;;;;;5040918;28;20379;-64
2024/02/14 06:09:11;;;;;;;2.28;0.70;;;19.70;46.30;;;;;;5049434;28;20021;-64
2024/02/14 06:11:42;;;;;;;0.73;0.60;;;19.70;46.30;;;;;;5042705;28;20026;-64
2024/02/14 06:14:08;;;;;;;0.77;0.60;;;19.70;46.30;;;;;;5045139;28;20038;-63
2024/02/14 06:16:35;;;;;;;1.08;0.68;;;19.70;46.30;;;;;;5045591;28;20029;-64
2024/02/14 06:19:04;;;;;;;1.00;0.70;;;19.70;46.40;;;;;;5041046;28;21591;-65
2024/02/14 06:21:30;;;;;;;0.65;0.43;;;19.70;46.40;;;;;;5044637;28;20104;-66
2024/02/14 06:23:58;;;;;;;1.15;0.60;;;19.70;46.50;;;;;;5041243;28;20174;-64
2024/02/14 06:26:24;;;;;;;0.82;0.60;;;19.70;46.50;;;;;;5041457;28;20428;-64
2024/02/14 06:28:54;;;;;;;1.05;0.50;;;19.70;46.50;;;;;;5045136;28;20029;-64
2024/02/14 06:31:21;;;;;;;0.90;0.70;;;19.60;46.50;;;;;;5043021;28;20122;-64
2024/02/14 06:33:47;;;;;;;1.05;0.50;;;19.60;46.50;;;;;;5045252;28;20025;-65
2024/02/14 06:36:13;;;;;;;0.93;0.68;;;19.60;46.60;;;;;;5039869;28;20548;-63
2024/02/14 06:38:38;;;;;;;0.57;0.55;;;19.60;46.60;;;;;;5043527;28;20115;-64
2024/02/14 06:41:05;;;;;;;0.70;0.63;;;19.70;46.70;;;;;;5039779;28;20049;-64
2024/02/14 06:43:31;;;;;;;1.15;0.70;;;19.60;46.70;;;;;;5041851;28;20025;-64
2024/02/14 06:45:57;;;;;;;0.70;0.60;;;19.60;46.70;;;;;;5039762;28;20132;-65
2024/02/14 06:48:24;;;;;;;1.05;0.60;;;19.60;46.70;;;;;;5039755;28;20053;-65
2024/02/14 06:50:50;;;;;;;0.80;0.50;;;19.60;46.80;;;;;;5042154;28;20065;-64
2024/02/14 06:53:17;;;;;;;1.10;0.63;;;19.60;46.80;;;;;;5043736;28;20020;-64
2024/02/14 06:55:43;;;;;;;0.90;0.50;;;19.60;46.80;;;;;;5043881;28;20068;-65
2024/02/14 06:58:09;;;;;;;0.77;0.52;;;19.60;46.90;;;;;;5042477;28;20045;-65
2024/02/14 07:00:34;;;;;;;0.60;0.60;;;19.60;46.90;;;;;;5041777;28;20036;-63
2024/02/14 07:03:00;;;;;;;0.50;0.40;;;19.60;46.90;;;;;;5041859;28;20033;-64
2024/02/14 07:05:29;;;;;;;0.73;0.52;;;19.60;47.00;;;;;;5038893;28;20038;-64
2024/02/14 07:07:55;;;;;;;0.90;0.57;;;19.60;47.00;;;;;;5041757;28;20025;-64
2024/02/14 07:10:21;;;;;;;1.05;0.60;;;19.60;47.10;;;;;;5039641;28;20025;-65
2024/02/14 07:12:47;;;;;;;0.88;0.60;;;19.60;47.10;;;;;;5044350;28;20025;-65
2024/02/14 07:15:13;;;;;;;1.13;0.70;;;19.60;47.20;;;;;;5045787;28;20043;-63
2024/02/14 07:17:39;;;;;;;1.25;0.73;;;19.60;47.20;;;;;;5039774;28;20033;-63
2024/02/14 07:20:08;;;;;;;0.70;0.68;;;19.60;47.20;;;;;;5040022;28;20024;-64
2024/02/14 07:22:35;;;;;;;0.85;0.45;;;19.60;47.20;;;;;;5044005;28;20071;-63
2024/02/14 07:25:01;;;;;;;0.95;0.60;;;19.60;47.30;;;;;;5038824;28;20396;-64
2024/02/14 07:27:27;;;;;;;0.70;0.60;;;19.60;47.30;;;;;;5047585;28;20091;-65
2024/02/14 07:29:53;;;;;;;0.50;0.35;;;19.60;47.30;;;;;;5049519;28;20033;-65
2024/02/14 07:32:19;;;;;;;1.27;0.60;;;19.60;47.40;;;;;;5041686;28;20511;-64
2024/02/14 07:34:46;;;;;;;0.63;0.43;;;19.60;47.40;;;;;;5043419;28;20108;-65
2024/02/14 07:37:11;;;;;;;0.73;0.52;;;19.60;47.40;;;;;;5035904;28;20021;-62
2024/02/14 07:39:37;;;;;;;2.70;0.70;;;19.60;47.50;;;;;;5020685;28;20496;-63
2024/02/14 07:42:03;;;;;;;0.77;0.57;;;19.60;47.50;;;;;;5041765;28;20056;-63
2024/02/14 07:44:31;;;;;;;0.63;0.50;;;19.60;47.50;;;;;;5042648;28;20517;-60
2024/02/14 07:46:59;;;;;;;0.77;0.55;;;19.60;47.50;;;;;;5042914;28;20024;-62
2024/02/14 07:49:25;;;;;;;0.85;0.50;;;19.60;47.50;;;;;;5044657;28;20026;-63
2024/02/14 07:51:51;;;;;;;2.28;0.50;;;19.60;47.60;;;;;;5039662;28;21476;-63
2024/02/14 07:54:16;;;;;;;0.68;0.40;;;19.60;47.60;;;;;;5040160;28;20017;-65
2024/02/14 07:56:42;;;;;;;0.77;0.50;;;19.60;47.60;;;;;;5041589;28;20022;-64
2024/02/14 07:59:08;;;;;;;1.23;0.60;;;19.60;47.70;;;;;;5036804;28;20020;-63
2024/02/14 08:01:33;;;;;;;1.27;0.60;;;19.50;47.70;;;;;;5044836;28;20072;-64
2024/02/14 08:03:59;;;;;;;1.33;0.80;;;19.60;47.80;;;;;;5043407;28;20025;-65
2024/02/14 08:06:25;;;;;;;0.98;0.70;;;19.60;47.80;;;;;;5027803;28;20041;-64
2024/02/14 08:08:57;;;;;;;1.52;0.60;;;19.60;47.90;;;;;;5041667;28;20445;-65
2024/02/14 08:11:22;;;;;;;0.77;0.60;;;19.60;47.90;;;;;;5046878;28;20471;-64
2024/02/14 08:13:48;;;;;;;1.20;0.80;;;19.60;48.00;;;;;;5040635;28;20029;-64
2024/02/14 08:16:14;;;;;;;0.82;0.57;;;19.60;48.00;;;;;;5044908;28;20026;-64
2024/02/14 08:18:40;;;;;;;2.00;0.60;;;19.60;48.00;;;;;;5045788;28;20360;-66
2024/02/14 08:21:06;;;;;;;1.08;0.73;;;19.60;47.90;;;;;;5043945;28;20048;-64
2024/02/14 08:23:34;;;;;;;1.08;0.73;;;19.70;48.00;;;;;;5042607;28;20033;-63
2024/02/14 08:26:00;;;;;;;0.98;0.60;;;19.70;47.90;;;;;;5046046;28;20037;-64
2024/02/14 08:28:26;;;;;;;1.60;0.88;;;19.80;48.00;;;;;;5038592;28;20037;-64
2024/02/14 08:30:52;;;;;;;0.85;0.50;;;19.80;48.00;;;;;;5044270;28;20028;-65
2024/02/14 08:33:18;;;;;;;1.75;0.82;;;19.80;47.90;;;;;;5039974;28;20400;-62
2024/02/14 08:35:43;;;;;;;0.80;0.50;;;19.80;47.90;;;;;;5038860;28;20440;-65
2024/02/14 08:38:09;;;;;;;1.35;0.70;;;19.90;48.00;;;;;;5038415;28;20029;-64
2024/02/14 08:40:35;;;;;;;1.10;0.80;;;19.90;47.90;;;;;;5038211;28;20037;-63
2024/02/14 08:43:01;;;;;;;0.77;0.57;;;19.90;47.90;;;;;;5037210;28;21422;-63
2024/02/14 08:45:29;;;;;;;0.95;0.40;;;20.00;47.90;;;;;;5034963;28;20338;-62
2024/02/14 08:47:55;;;;;;;1.02;0.57;;;20.00;47.90;;;;;;5041075;28;20120;-64
2024/02/14 08:50:21;;;;;;;1.30;0.60;;;20.10;47.90;;;;;;5046211;28;20107;-63
2024/02/14 08:52:47;;;;;;;1.23;0.63;;;20.10;47.90;;;;;;5044645;28;20079;-64
2024/02/14 08:55:17;;;;;;;0.80;0.47;;;20.10;47.80;;;;;;5044100;28;20356;-64
2024/02/14 08:57:43;;;;;;;1.10;0.60;;;20.20;47.80;;;;;;5051045;28;20021;-65
2024/02/14 09:00:10;;;;;;;1.25;0.60;;;20.20;47.70;;;;;;5048341;28;20444;-64
2024/02/14 09:02:36;;;;;;;1.13;0.68;;;20.20;47.70;;;;;;5050682;28;20068;-62
2024/02/14 09:05:05;;;;;;;2.42;0.60;;;20.20;47.60;;;;;;5042826;28;20060;-63
2024/02/14 09:11:07;;;;;;;1.60;0.60;;;20.30;47.60;;;;;;4976094;28;20053;-60
2024/02/14 09:13:33;;;;;;;0.55;0.47;;;20.30;47.50;;;;;;4978974;28;20113;-60
2024/02/14 09:15:59;;;;;;;1.83;0.50;;;20.40;47.60;;;;;;4978905;28;20035;-60
2024/02/14 09:18:25;;;;;;;1.42;0.70;;;20.40;47.60;;;;;;4978009;28;20117;-60
2024/02/14 09:20:51;;;;;;;0.52;0.43;;;20.40;47.50;;;;;;4975799;28;20035;-60
2024/02/14 09:23:20;;;;;;;0.65;0.50;;;20.40;47.50;;;;;;4978935;28;20353;-59
2024/02/14 09:25:49;;;;;;;2.67;0.50;;;20.40;47.50;;;;;;4979233;28;20390;-60
2024/02/14 09:28:18;;;;;;;0.82;0.50;;;20.50;47.50;;;;;;4978911;28;20031;-61
2024/02/14 09:30:44;;;;;;;1.23;0.45;;;20.50;47.50;;;;;;4978487;28;20453;-60
2024/02/14 09:33:10;;;;;;;1.83;0.60;;;20.60;48.10;;;;;;4978980;28;20097;-59
2024/02/14 09:35:38;;;;;;;1.02;0.70;;;20.50;47.40;;;;;;4978991;28;20042;-60
2024/02/14 09:38:04;;;;;;;1.00;0.50;;;20.60;47.50;;;;;;4977934;28;20031;-60
2024/02/14 09:40:30;;;;;;;0.77;0.40;;;20.60;47.50;;;;;;4979046;28;20342;-60
2024/02/14 09:42:58;;;;;;;0.73;0.50;;;20.60;47.40;;;;;;4978846;28;20062;-60
2024/02/14 09:45:27;;;;;;;1.42;0.50;;;20.60;47.30;;;;;;4977625;28;20038;-59
2024/02/14 09:47:55;;;;;;;0.88;0.50;;;20.70;47.40;;;;;;4978449;28;20093;-59
2024/02/14 09:50:22;;;;;;;0.90;0.50;;;20.70;47.30;;;;;;4978810;28;20046;-60
2024/02/14 09:52:48;;;;;;;1.15;0.40;;;20.70;47.30;;;;;;4978961;28;20326;-60
2024/02/14 09:55:16;;;;;;;0.68;0.40;;;20.80;47.30;;;;;;4978576;28;20445;-60
2024/02/14 09:57:43;;;;;;;1.45;0.65;;;20.80;47.20;;;;;;4977411;28;20050;-60
2024/02/14 10:00:14;;;;;;;1.13;0.40;;;20.80;47.20;;;;;;4978085;28;20027;-60
2024/02/14 10:02:41;;;;;;;1.60;0.50;;;20.80;47.10;;;;;;4977297;28;20035;-60
2024/02/14 10:05:07;;;;;;;0.93;0.50;;;20.90;47.10;;;;;;4978509;28;20027;-60
2024/02/14 10:07:41;;;;;;;1.02;0.50;;;20.90;47.10;;;;;;4977474;28;20073;-62
2024/02/14 10:10:07;;;;;;;1.00;0.40;;;20.90;47.10;;;;;;5000918;28;20129;-60
2024/02/14 10:12:33;;;;;;;0.73;0.43;;;20.90;47.00;;;;;;4997394;28;20425;-60
2024/02/14 10:14:59;;;;;;;1.20;0.60;;;21.00;47.10;;;;;;5009367;28;20425;-60
2024/02/14 10:17:26;;;;;;;0.90;0.50;;;21.00;47.20;;;;;;5016518;28;20061;-60
2024/02/14 10:20:06;;;;;;;0.88;0.50;;;21.00;47.20;;;;;;5015294;28;20030;-59
2024/02/14 10:22:36;;;;;;;1.73;0.60;;;21.00;47.20;;;;;;5016959;28;20499;-60
2024/02/14 10:25:03;;;;;;;1.13;0.63;;;21.00;47.20;;;;;;5014166;28;20061;-60
2024/02/14 10:27:31;;;;;;;1.08;0.50;;;21.10;47.30;;;;;;4996898;28;20109;-60
2024/02/14 10:29:58;;;;;;;1.63;0.65;;;21.10;47.30;;;;;;5011700;28;20030;-60
2024/02/14 10:32:24;;;;;;;1.00;0.50;;;21.10;47.30;;;;;;5015872;28;20470;-60
2024/02/14 10:34:50;;;;;;;0.80;0.40;;;21.10;47.30;;;;;;5016840;28;20033;-60
2024/02/14 10:37:20;;;;;;;1.15;0.50;;;21.10;47.20;;;;;;5015888;28;20034;-60
2024/02/14 10:39:48;;;;;;;2.08;0.70;;;21.10;47.20;;;;;;5016261;28;20057;-60
2024/02/14 10:42:15;;;;;;;1.23;0.60;;;21.10;47.20;;;;;;5015016;28;20038;-60
2024/02/14 10:44:41;;;;;;;1.35;0.60;;;21.10;47.20;;;;;;5015621;28;20038;-59
2024/02/14 10:47:14;;;;;;;1.15;0.60;;;21.10;47.20;;;;;;4999047;28;20041;-60
2024/02/14 10:49:42;;;;;;;1.08;0.70;;;21.10;47.20;;;;;;5016361;28;20407;-60
2024/02/14 10:52:10;;;;;;;1.63;0.70;;;21.10;47.30;;;;;;4991257;28;20381;-60
2024/02/14 10:54:37;;;;;;;1.63;0.70;;;21.20;47.40;;;;;;5009833;28;20029;-60
2024/02/14 10:57:12;;;;;;;0.77;0.60;;;21.10;47.30;;;;;;5016434;28;20026;-60
2024/02/14 10:59:45;;;;;;;1.50;0.80;;;21.10;47.40;;;;;;5014105;28;20359;-60
2024/02/14 11:02:12;;;;;;;1.37;0.70;;;21.10;47.40;;;;;;5015067;28;20188;-60
2024/02/14 11:04:38;;;;;;;0.80;0.70;;;21.10;47.40;;;;;;5001032;28;20069;-60
2024/02/14 11:07:09;;;;;;;2.30;0.70;;;21.10;47.40;;;;;;5002586;28;20049;-60
2024/02/14 11:09:40;;;;;;;1.02;0.77;;;21.10;47.50;;;;;;4970269;28;20063;-60
2024/02/14 11:12:10;;;;;;;1.75;0.85;;;21.10;47.50;;;;;;5009305;28;20061;-60
2024/02/14 11:14:39;;;;;;;1.50;0.88;;;21.10;47.50;;;;;;5008762;28;20034;-60
2024/02/14 11:17:09;;;;;;;1.17;0.90;;;21.10;47.60;;;;;;5015689;28;20044;-60
2024/02/14 11:19:38;;;;;;;0.80;0.55;;;21.10;47.70;;;;;;4998247;28;20034;-60
2024/02/14 11:22:20;;;;;;;1.25;0.73;;;21.10;47.70;;;;;;5011631;28;20096;-60
2024/02/14 11:24:47;;;;;;;1.10;0.80;;;21.10;47.70;;;;;;4998888;28;20034;-61
2024/02/14 11:27:13;;;;;;;1.63;0.70;;;21.00;47.70;;;;;;5000385;28;20042;-62
2024/02/14 11:29:52;;;;;;;1.42;0.73;;;21.10;47.90;;;;;;4989048;28;20420;-61
2024/02/14 11:32:22;;;;;;;1.42;0.85;;;21.10;48.00;;;;;;5005701;28;20040;-66
2024/02/14 11:34:58;;;;;;;1.08;0.60;;;21.10;48.10;;;;;;5014166;28;20049;-63
2024/02/14 11:37:29;;;;;;;1.55;0.95;;;21.20;48.30;;;;;;5007042;28;20037;-63
2024/02/14 11:39:58;;;;;;;0.85;0.60;;;21.30;48.20;;;;;;5014531;28;20029;-63
2024/02/14 11:42:25;;;;;;;1.95;0.93;;;21.40;48.20;;;;;;5011266;28;20050;-68
2024/02/14 11:44:52;;;;;;;0.80;0.60;;;21.50;48.20;;;;;;5013175;28;20057;-70
2024/02/14 11:47:18;;;;;;;0.80;0.50;;;21.50;48.20;;;;;;5013880;28;20046;-62
2024/02/14 11:49:44;;;;;;;0.77;0.60;;;21.60;48.20;;;;;;5014837;28;20057;-61
2024/02/14 11:52:12;;;;;;;0.80;0.60;;;21.70;48.20;;;;;;5012954;28;20324;-65
2024/02/14 11:54:38;;;;;;;1.67;0.60;;;21.70;48.00;;;;;;4996326;28;20026;-61
2024/02/14 11:57:04;;;;;;;0.60;0.50;;;21.80;48.00;;;;;;4995142;28;20095;-68
2024/02/14 11:59:29;;;;;;;0.90;0.70;;;21.80;47.90;;;;;;5011709;28;20038;-64
2024/02/14 12:01:58;;;;;;;1.10;0.80;;;21.90;47.80;;;;;;5012378;28;20117;-63
2024/02/14 12:04:24;;;;;;;0.98;0.50;;;21.90;47.70;;;;;;4995738;28;20030;-61
2024/02/14 12:06:50;;;;;;;1.13;0.60;;;22.00;47.50;;;;;;5013238;28;20030;-64
2024/02/14 12:09:16;;;;;;;0.73;0.50;;;22.10;47.50;;;;;;4995642;28;20127;-65
2024/02/14 12:11:43;;;;;;;1.10;0.50;;;22.20;47.40;;;;;;5013812;28;20034;-66
2024/02/14 12:14:09;;;;;;;0.88;0.40;;;22.20;47.20;;;;;;5013429;28;20045;-62
2024/02/14 12:16:37;;;;;;;1.08;0.57;;;22.30;47.00;;;;;;5009949;28;20122;-62
2024/02/14 12:19:09;;;;;;;1.10;0.70;;;22.40;47.00;;;;;;5015524;28;20056;-63
2024/02/14 12:21:39;;;;;;;1.38;0.60;;;22.40;46.80;;;;;;5011083;28;20112;-65
2024/02/14 12:24:09;;;;;;;1.08;0.60;;;22.50;46.70;;;;;;5011424;28;20445;-64
2024/02/14 12:26:37;;;;;;;1.00;0.60;;;22.50;46.50;;;;;;5016978;28;20038;-65
2024/02/14 12:29:07;;;;;;;0.90;0.50;;;22.60;46.40;;;;;;5015977;28;20378;-64
2024/02/14 12:31:33;;;;;;;0.68;0.38;;;22.60;46.30;;;;;;5015303;28;20029;-66
2024/02/14 12:34:01;;;;;;;0.88;0.50;;;22.70;46.20;;;;;;5017023;28;20121;-67
2024/02/14 12:36:31;;;;;;;0.93;0.55;;;22.70;46.10;;;;;;5013744;28;20049;-64
2024/02/14 12:38:57;;;;;;;1.33;0.60;;;22.80;46.10;;;;;;4997883;28;20103;-63
2024/02/14 12:41:29;;;;;;;1.05;0.45;;;22.80;46.00;;;;;;4997595;28;20470;-63
2024/02/14 12:43:56;;;;;;;0.32;0.32;;;22.80;45.90;;;;;;5015715;28;20029;-64
2024/02/14 12:46:22;;;;;;;1.08;0.40;;;22.80;45.80;;;;;;4999545;28;20037;-64
2024/02/14 12:48:48;;;;;;;0.90;0.43;;;22.90;45.70;;;;;;5011296;28;20038;-62